createdAt,value
2022-11-05T00:00:58.410Z,1016.047485
2022-11-05T00:01:54.803Z,1016.037231
2022-11-05T00:03:53.506Z,1016.021118
2022-11-05T00:04:53.514Z,1016.026917
2022-11-05T00:05:49.858Z,1016.091309
2022-11-05T00:06:51.430Z,1016.067566
2022-11-05T00:07:48.019Z,1016.115356
2022-11-05T00:08:47.040Z,1016.171692
2022-11-05T00:09:46.205Z,1016.134583
2022-11-05T00:10:47.959Z,1016.148376
2022-11-05T00:11:44.471Z,1016.105652
2022-11-05T00:12:53.562Z,1016.209778
2022-11-05T00:13:54.225Z,1016.226929
2022-11-05T00:14:50.224Z,1016.130676
2022-11-05T00:15:55.541Z,1016.2453
2022-11-05T00:16:56.598Z,1016.20575
2022-11-05T00:17:52.095Z,1016.210938
2022-11-05T00:18:52.381Z,1016.224121
2022-11-05T00:19:46.987Z,1016.245728
2022-11-05T00:20:52.356Z,1016.267334
2022-11-05T00:21:48.406Z,1016.313477
2022-11-05T00:23:34.517Z,1016.296448
2022-11-05T00:24:18.200Z,1016.263245
2022-11-05T00:24:24.217Z,1016.263245
2022-11-05T00:25:16.148Z,1016.220093
2022-11-05T00:26:12.526Z,1016.332275
2022-11-05T00:27:11.767Z,1016.262817
2022-11-05T00:29:05.279Z,1016.212769
2022-11-05T00:30:05.102Z,1016.318054
2022-11-05T00:30:59.991Z,1016.280945
2022-11-05T00:32:00.088Z,1016.324219
2022-11-05T00:33:56.925Z,1016.239319
2022-11-05T00:34:58.124Z,1016.213013
2022-11-05T00:35:54.553Z,1016.304016
2022-11-05T00:37:02.111Z,1016.282959
2022-11-05T00:37:58.956Z,1016.285339
2022-11-05T00:38:52.142Z,1016.312256
2022-11-05T00:39:54.607Z,1016.312256
2022-11-05T00:40:49.240Z,1016.272095
2022-11-05T00:41:56.125Z,1016.309692
2022-11-05T00:43:57.192Z,1016.35022
2022-11-05T00:44:52.566Z,1016.374023
2022-11-05T00:45:56.290Z,1016.369568
2022-11-05T00:46:59.642Z,1016.436096
2022-11-05T00:47:00.050Z,1016.436096
2022-11-05T00:48:50.453Z,1016.49292
2022-11-05T00:49:56.972Z,1016.495239
2022-11-05T00:50:54.486Z,1016.485046
2022-11-05T00:52:01.386Z,1016.47229
2022-11-05T00:53:56.595Z,1016.437561
2022-11-05T00:54:54.121Z,1016.408386
2022-11-05T00:55:52.413Z,1016.470032
2022-11-05T00:57:01.958Z,1016.531799
2022-11-05T00:57:04.742Z,1016.531799
2022-11-05T00:58:54.954Z,1016.488586
2022-11-05T00:59:57.023Z,1016.507568
2022-11-05T01:00:48.941Z,1016.448914
2022-11-05T01:01:54.910Z,1016.475647
2022-11-05T01:02:47.078Z,1016.579712
2022-11-05T01:03:51.751Z,1016.614868
2022-11-05T01:05:56.196Z,1016.574097
2022-11-05T01:06:36.468Z,1016.584473
2022-11-05T01:08:34.798Z,1016.643127
2022-11-05T01:09:29.198Z,1016.627563
2022-11-05T01:10:28.572Z,1016.614563
2022-11-05T01:11:24.204Z,1016.703125
2022-11-05T01:12:23.319Z,1016.74054
2022-11-05T01:14:24.216Z,1016.709595
2022-11-05T01:15:19.438Z,1016.717529
2022-11-05T01:16:17.667Z,1016.733948
2022-11-05T01:17:14.634Z,1016.782227
2022-11-05T01:19:10.267Z,1016.732239
2022-11-05T01:20:11.397Z,1016.753784
2022-11-05T01:21:06.785Z,1016.764587
2022-11-05T01:22:06.017Z,1016.767517
2022-11-05T01:24:02.025Z,1016.866455
2022-11-05T01:24:58.665Z,1016.895935
2022-11-05T01:26:01.880Z,1016.869263
2022-11-05T01:27:01.413Z,1016.858582
2022-11-05T01:29:00.683Z,1016.884888
2022-11-05T01:29:59.588Z,1016.807312
2022-11-05T01:30:59.904Z,1016.828796
2022-11-05T01:31:59.091Z,1016.866455
2022-11-05T01:32:55.412Z,1016.7995
2022-11-05T01:33:58.232Z,1016.791321
2022-11-05T01:34:54.238Z,1016.78064
2022-11-05T01:35:55.971Z,1016.815491
2022-11-05T01:36:48.372Z,1016.802124
2022-11-05T01:37:46.639Z,1016.834045
2022-11-05T01:38:43.114Z,1016.821045
2022-11-05T01:39:39.734Z,1016.895935
2022-11-05T01:40:38.456Z,1016.91748
2022-11-05T01:41:32.539Z,1016.96582
2022-11-05T01:42:33.998Z,1016.989563
2022-11-05T01:43:58.012Z,1016.944214
2022-11-05T01:44:41.611Z,1016.976135
2022-11-05T01:45:45.447Z,1016.965454
2022-11-05T01:46:44.692Z,1016.930664
2022-11-05T01:47:48.983Z,1016.92511
2022-11-05T01:48:47.235Z,1016.941345
2022-11-05T01:49:54.956Z,1016.912231
2022-11-05T01:50:50.774Z,1016.968994
2022-11-05T01:51:50.436Z,1016.966125
2022-11-05T01:53:46.959Z,1016.996094
2022-11-05T01:54:49.280Z,1017.039063
2022-11-05T01:55:47.283Z,1016.958862
2022-11-05T01:56:45.812Z,1016.999207
2022-11-05T01:57:41.154Z,1016.867859
2022-11-05T01:58:46.805Z,1016.966309
2022-11-05T01:59:39.346Z,1016.958862
2022-11-05T02:00:39.223Z,1017.073242
2022-11-05T02:01:37.562Z,1016.912903
2022-11-05T02:03:34.796Z,1016.976807
2022-11-05T02:04:30.865Z,1017.076233
2022-11-05T02:05:31.163Z,1017.086914
2022-11-05T02:06:16.342Z,1017.169434
2022-11-05T02:07:18.718Z,1017.12146
2022-11-05T02:09:13.023Z,1017.063416
2022-11-05T02:10:11.443Z,1017.103516
2022-11-05T02:11:09.821Z,1017.138489
2022-11-05T02:12:10.404Z,1017.090515
2022-11-05T02:13:55.314Z,1017.108765
2022-11-05T02:14:44.621Z,1017.137573
2022-11-05T02:15:40.690Z,1017.193665
2022-11-05T02:16:31.009Z,1017.217163
2022-11-05T02:17:32.195Z,1017.184875
2022-11-05T02:19:30.223Z,1017.128418
2022-11-05T02:20:28.417Z,1017.099426
2022-11-05T02:21:32.465Z,1017.233459
2022-11-05T02:22:31.944Z,1017.276123
2022-11-05T02:23:35.915Z,1017.225586
2022-11-05T02:24:51.002Z,1017.236389
2022-11-05T02:25:52.841Z,1017.279358
2022-11-05T02:26:47.927Z,1017.290161
2022-11-05T02:28:41.277Z,1017.290344
2022-11-05T02:29:42.195Z,1017.442261
2022-11-05T02:30:37.984Z,1017.383362
2022-11-05T02:31:38.304Z,1017.320007
2022-11-05T02:32:33.420Z,1017.234619
2022-11-05T02:33:35.293Z,1017.320313
2022-11-05T02:34:30.077Z,1017.373901
2022-11-05T02:35:34.638Z,1017.424744
2022-11-05T02:36:33.958Z,1017.414917
2022-11-05T02:38:35.158Z,1017.422424
2022-11-05T02:39:35.460Z,1017.297424
2022-11-05T02:41:22.913Z,1017.372131
2022-11-05T02:42:05.292Z,1017.366638
2022-11-05T02:43:03.089Z,1017.384644
2022-11-05T02:44:04.418Z,1017.379517
2022-11-05T02:45:01.569Z,1017.441589
2022-11-05T02:46:02.400Z,1017.414917
2022-11-05T02:46:59.005Z,1017.443909
2022-11-05T02:48:58.533Z,1017.317932
2022-11-05T02:50:03.561Z,1017.390503
2022-11-05T02:50:58.477Z,1017.366882
2022-11-05T02:52:05.241Z,1017.361572
2022-11-05T02:53:10.153Z,1017.345459
2022-11-05T02:54:06.752Z,1017.360535
2022-11-05T02:55:12.801Z,1017.331238
2022-11-05T02:56:12.514Z,1017.38739
2022-11-05T02:57:17.919Z,1017.358276
2022-11-05T02:59:18.691Z,1017.321106
2022-11-05T03:00:19.259Z,1017.417297
2022-11-05T03:01:24.738Z,1017.40741
2022-11-05T03:02:28.303Z,1017.410034
2022-11-05T03:04:27.451Z,1017.311218
2022-11-05T03:05:28.448Z,1017.391479
2022-11-05T03:06:27.386Z,1017.303101
2022-11-05T03:07:28.556Z,1017.257874
2022-11-05T03:09:32.579Z,1017.354248
2022-11-05T03:11:54.853Z,1017.259949
2022-11-05T03:12:36.373Z,1017.26178
2022-11-05T03:13:36.622Z,1017.256287
2022-11-05T03:14:36.653Z,1017.269714
2022-11-05T03:15:33.233Z,1017.237671
2022-11-05T03:16:35.417Z,1017.251404
2022-11-05T03:18:34.034Z,1017.18512
2022-11-05T03:19:29.686Z,1017.254639
2022-11-05T03:20:30.585Z,1017.302856
2022-11-05T03:21:25.293Z,1017.300537
2022-11-05T03:22:24.764Z,1017.308655
2022-11-05T03:23:24.851Z,1017.276428
2022-11-05T03:24:23.871Z,1017.331848
2022-11-05T03:25:32.892Z,1017.315979
2022-11-05T03:26:34.125Z,1017.319153
2022-11-05T03:27:29.532Z,1017.292358
2022-11-05T03:28:31.672Z,1017.297913
2022-11-05T03:29:26.364Z,1017.290039
2022-11-05T03:30:29.752Z,1017.316772
2022-11-05T03:31:26.070Z,1017.290039
2022-11-05T03:32:27.717Z,1017.303345
2022-11-05T03:34:18.302Z,1017.276733
2022-11-05T03:35:18.732Z,1017.228638
2022-11-05T03:36:14.029Z,1017.332947
2022-11-05T03:37:15.550Z,1017.343628
2022-11-05T03:38:10.046Z,1017.351501
2022-11-05T03:39:12.446Z,1017.319458
2022-11-05T03:40:11.594Z,1017.447754
2022-11-05T03:41:13.251Z,1017.386597
2022-11-05T03:42:09.396Z,1017.421021
2022-11-05T03:44:06.710Z,1017.40802
2022-11-05T03:45:09.671Z,1017.418701
2022-11-05T03:46:09.060Z,1017.424255
2022-11-05T03:47:04.967Z,1017.541748
2022-11-05T03:49:02.145Z,1017.459412
2022-11-05T03:50:02.113Z,1017.512756
2022-11-05T03:50:57.543Z,1017.536316
2022-11-05T03:51:56.872Z,1017.475342
2022-11-05T03:52:54.288Z,1017.49353
2022-11-05T03:53:56.679Z,1017.480774
2022-11-05T03:56:18.689Z,1017.50824
2022-11-05T03:56:59.923Z,1017.532532
2022-11-05T03:59:07.290Z,1017.604431
2022-11-05T04:00:03.655Z,1017.703735
2022-11-05T04:01:06.713Z,1017.706787
2022-11-05T04:02:02.161Z,1017.645325
2022-11-05T04:03:02.327Z,1017.637451
2022-11-05T04:03:59.545Z,1017.656067
2022-11-05T04:04:54.064Z,1017.618896
2022-11-05T04:05:50.286Z,1017.691101
2022-11-05T04:06:52.854Z,1017.705017
2022-11-05T04:08:48.357Z,1017.808899
2022-11-05T04:09:47.462Z,1017.785339
2022-11-05T04:10:42.025Z,1017.71051
2022-11-05T04:11:40.803Z,1017.675354
2022-11-05T04:13:37.640Z,1017.79071
2022-11-05T04:14:36.113Z,1017.766174
2022-11-05T04:15:33.361Z,1017.739502
2022-11-05T04:16:32.752Z,1017.78772
2022-11-05T04:17:27.019Z,1017.790833
2022-11-05T04:18:26.700Z,1017.764099
2022-11-05T04:19:26.030Z,1017.809631
2022-11-05T04:19:26.309Z,1017.809631
2022-11-05T04:20:24.821Z,1017.782959
2022-11-05T04:21:19.166Z,1017.742737
2022-11-05T04:22:20.483Z,1017.774719
2022-11-05T04:24:15.408Z,1017.806763
2022-11-05T04:25:13.353Z,1017.79895
2022-11-05T04:26:12.046Z,1017.78009
2022-11-05T04:27:12.921Z,1017.740295
2022-11-05T04:28:08.056Z,1017.76178
2022-11-05T04:29:11.438Z,1017.774841
2022-11-05T04:30:09.251Z,1017.774841
2022-11-05T04:31:00.954Z,1017.771484
2022-11-05T04:32:02.269Z,1017.897583
2022-11-05T04:32:56.631Z,1017.894287
2022-11-05T04:33:59.836Z,1017.830261
2022-11-05T04:34:54.306Z,1017.817383
2022-11-05T04:35:56.137Z,1017.79071
2022-11-05T04:36:57.972Z,1017.792908
2022-11-05T04:38:54.825Z,1017.806763
2022-11-05T04:39:49.768Z,1017.833557
2022-11-05T04:40:52.608Z,1017.852417
2022-11-05T04:41:47.062Z,1017.820435
2022-11-05T04:43:43.185Z,1017.825562
2022-11-05T04:44:46.169Z,1017.887024
2022-11-05T04:45:57.490Z,1017.788269
2022-11-05T04:46:50.858Z,1017.921753
2022-11-05T04:47:51.463Z,1017.889709
2022-11-05T04:49:34.378Z,1017.879089
2022-11-05T04:50:25.136Z,1017.908264
2022-11-05T04:51:21.762Z,1017.894287
2022-11-05T04:52:22.260Z,1017.897522
2022-11-05T04:53:22.621Z,1017.95105
2022-11-05T04:54:17.465Z,1017.967224
2022-11-05T04:55:16.467Z,1017.913635
2022-11-05T04:56:14.507Z,1017.943054
2022-11-05T04:57:15.961Z,1017.89502
2022-11-05T04:58:14.112Z,1017.898193
2022-11-05T04:59:18.015Z,1017.951599
2022-11-05T05:00:12.386Z,1017.87915
2022-11-05T05:01:10.365Z,1017.911255
2022-11-05T05:02:16.353Z,1017.841797
2022-11-05T05:03:18.835Z,1017.927246
2022-11-05T05:04:13.220Z,1017.946411
2022-11-05T05:05:13.206Z,1017.871765
2022-11-05T05:06:08.929Z,1017.893005
2022-11-05T05:07:09.907Z,1017.921936
2022-11-05T05:09:05.491Z,1017.925049
2022-11-05T05:10:05.807Z,1017.996704
2022-11-05T05:11:01.406Z,1017.937927
2022-11-05T05:12:04.556Z,1017.978394
2022-11-05T05:14:03.443Z,1018.002014
2022-11-05T05:14:59.085Z,1018.021118
2022-11-05T05:15:59.385Z,1018.012634
2022-11-05T05:16:55.719Z,1018.002014
2022-11-05T05:18:53.388Z,1018.001892
2022-11-05T05:19:57.082Z,1017.959106
2022-11-05T05:20:49.705Z,1017.983582
2022-11-05T05:21:53.221Z,1018.031738
2022-11-05T05:24:30.749Z,1017.959167
2022-11-05T05:25:12.173Z,1018.028564
2022-11-05T05:26:10.456Z,1017.988281
2022-11-05T05:27:15.144Z,1017.98584
2022-11-05T05:28:28.257Z,1018.023254
2022-11-05T05:29:23.263Z,1017.978394
2022-11-05T05:30:24.501Z,1018.018066
2022-11-05T05:31:20.190Z,1018.060791
2022-11-05T05:32:22.433Z,1017.986633
2022-11-05T05:33:28.351Z,1018.034668
2022-11-05T05:34:24.926Z,1018.04541
2022-11-05T05:35:25.654Z,1018.0401
2022-11-05T05:36:21.680Z,1018.0401
2022-11-05T05:37:21.843Z,1018.072144
2022-11-05T05:38:18.637Z,1018.085999
2022-11-05T05:39:18.541Z,1018.133972
2022-11-05T05:40:16.911Z,1018.066833
2022-11-05T05:41:22.648Z,1018.118042
2022-11-05T05:42:18.961Z,1018.178955
2022-11-05T05:43:21.087Z,1018.141602
2022-11-05T05:44:17.826Z,1018.155334
2022-11-05T05:45:13.237Z,1018.178955
2022-11-05T05:46:17.933Z,1018.150024
2022-11-05T05:47:15.066Z,1018.080688
